sensor_id;sensor_type;location;lat;lon;timestamp;P1;durP1;ratioP1;P2;durP2;ratioP2
43620;SDS011;29213;50.770;7.298;2023-08-01T00:00:00;2.15;;;0.70;;
43620;SDS011;29213;50.770;7.298;2023-08-01T00:02:27;2.08;;;0.80;;
43620;SDS011;29213;50.770;7.298;2023-08-01T00:04:53;2.75;;;0.70;;
43620;SDS011;29213;50.770;7.298;2023-08-01T00:07:18;1.77;;;0.60;;
43620;SDS011;29213;50.770;7.298;2023-08-01T00:09:44;1.33;;;0.63;;
43620;SDS011;29213;50.770;7.298;2023-08-01T00:12:09;2.67;;;0.70;;
43620;SDS011;29213;50.770;7.298;2023-08-01T00:14:35;1.15;;;0.50;;
43620;SDS011;29213;50.770;7.298;2023-08-01T00:17:01;1.48;;;0.57;;
43620;SDS011;29213;50.770;7.298;2023-08-01T00:19:27;0.95;;;0.55;;
43620;SDS011;29213;50.770;7.298;2023-08-01T00:21:52;1.63;;;0.63;;
43620;SDS011;29213;50.770;7.298;2023-08-01T00:24:18;2.78;;;0.73;;
43620;SDS011;29213;50.770;7.298;2023-08-01T00:26:43;2.03;;;0.70;;
43620;SDS011;29213;50.770;7.298;2023-08-01T00:29:09;1.40;;;0.40;;
43620;SDS011;29213;50.770;7.298;2023-08-01T00:31:34;0.70;;;0.40;;
43620;SDS011;29213;50.770;7.298;2023-08-01T00:33:59;1.42;;;0.60;;
43620;SDS011;29213;50.770;7.298;2023-08-01T00:36:25;3.50;;;0.60;;
43620;SDS011;29213;50.770;7.298;2023-08-01T00:38:50;1.48;;;0.60;;
43620;SDS011;29213;50.770;7.298;2023-08-01T00:41:15;1.50;;;0.52;;
43620;SDS011;29213;50.770;7.298;2023-08-01T00:43:41;1.88;;;0.63;;
43620;SDS011;29213;50.770;7.298;2023-08-01T00:46:06;1.65;;;0.57;;
43620;SDS011;29213;50.770;7.298;2023-08-01T00:48:33;2.25;;;0.50;;
43620;SDS011;29213;50.770;7.298;2023-08-01T00:50:59;1.98;;;0.73;;
43620;SDS011;29213;50.770;7.298;2023-08-01T00:53:28;3.63;;;0.52;;
43620;SDS011;29213;50.770;7.298;2023-08-01T00:55:54;2.75;;;0.57;;
43620;SDS011;29213;50.770;7.298;2023-08-01T00:58:20;1.52;;;0.60;;
43620;SDS011;29213;50.770;7.298;2023-08-01T01:00:45;2.22;;;0.55;;
43620;SDS011;29213;50.770;7.298;2023-08-01T01:03:11;1.17;;;0.50;;
43620;SDS011;29213;50.770;7.298;2023-08-01T01:05:38;0.57;;;0.30;;
43620;SDS011;29213;50.770;7.298;2023-08-01T01:08:07;1.38;;;0.70;;
43620;SDS011;29213;50.770;7.298;2023-08-01T01:10:32;1.13;;;0.50;;
43620;SDS011;29213;50.770;7.298;2023-08-01T01:12:58;2.00;;;0.65;;
43620;SDS011;29213;50.770;7.298;2023-08-01T01:15:23;1.10;;;0.40;;
43620;SDS011;29213;50.770;7.298;2023-08-01T01:17:48;0.63;;;0.40;;
43620;SDS011;29213;50.770;7.298;2023-08-01T01:20:14;1.10;;;0.38;;
43620;SDS011;29213;50.770;7.298;2023-08-01T01:22:39;1.20;;;0.40;;
43620;SDS011;29213;50.770;7.298;2023-08-01T01:25:06;1.10;;;0.50;;
43620;SDS011;29213;50.770;7.298;2023-08-01T01:27:32;0.80;;;0.38;;
43620;SDS011;29213;50.770;7.298;2023-08-01T01:30:00;1.88;;;0.50;;
43620;SDS011;29213;50.770;7.298;2023-08-01T01:32:26;2.88;;;0.82;;
43620;SDS011;29213;50.770;7.298;2023-08-01T01:34:53;1.08;;;0.47;;
43620;SDS011;29213;50.770;7.298;2023-08-01T01:37:18;1.00;;;0.50;;
43620;SDS011;29213;50.770;7.298;2023-08-01T01:39:44;3.08;;;0.57;;
43620;SDS011;29213;50.770;7.298;2023-08-01T01:42:09;3.05;;;0.60;;
43620;SDS011;29213;50.770;7.298;2023-08-01T01:44:35;1.00;;;0.40;;
43620;SDS011;29213;50.770;7.298;2023-08-01T01:47:00;2.22;;;0.50;;
43620;SDS011;29213;50.770;7.298;2023-08-01T01:49:25;1.75;;;0.50;;
43620;SDS011;29213;50.770;7.298;2023-08-01T01:51:51;0.82;;;0.40;;
43620;SDS011;29213;50.770;7.298;2023-08-01T01:54:16;1.45;;;0.40;;
43620;SDS011;29213;50.770;7.298;2023-08-01T01:56:42;1.65;;;0.52;;
43620;SDS011;29213;50.770;7.298;2023-08-01T01:59:07;0.80;;;0.50;;
43620;SDS011;29213;50.770;7.298;2023-08-01T02:01:33;0.47;;;0.38;;
43620;SDS011;29213;50.770;7.298;2023-08-01T02:03:58;1.38;;;0.60;;
43620;SDS011;29213;50.770;7.298;2023-08-01T02:06:23;0.77;;;0.50;;
43620;SDS011;29213;50.770;7.298;2023-08-01T02:08:49;0.98;;;0.40;;
43620;SDS011;29213;50.770;7.298;2023-08-01T02:11:14;0.75;;;0.38;;
43620;SDS011;29213;50.770;7.298;2023-08-01T02:13:39;2.30;;;0.70;;
43620;SDS011;29213;50.770;7.298;2023-08-01T02:16:05;3.58;;;0.93;;
43620;SDS011;29213;50.770;7.298;2023-08-01T02:18:31;3.42;;;0.63;;
43620;SDS011;29213;50.770;7.298;2023-08-01T02:20:56;3.50;;;0.80;;
43620;SDS011;29213;50.770;7.298;2023-08-01T02:23:21;4.40;;;0.45;;
43620;SDS011;29213;50.770;7.298;2023-08-01T02:25:47;2.22;;;0.50;;
43620;SDS011;29213;50.770;7.298;2023-08-01T02:28:12;1.15;;;0.50;;
43620;SDS011;29213;50.770;7.298;2023-08-01T02:30:38;0.70;;;0.40;;
43620;SDS011;29213;50.770;7.298;2023-08-01T02:33:03;1.73;;;0.50;;
43620;SDS011;29213;50.770;7.298;2023-08-01T02:35:29;1.92;;;0.57;;
43620;SDS011;29213;50.770;7.298;2023-08-01T02:37:57;1.13;;;0.45;;
43620;SDS011;29213;50.770;7.298;2023-08-01T02:40:22;2.17;;;0.40;;
43620;SDS011;29213;50.770;7.298;2023-08-01T02:42:48;2.45;;;0.65;;
43620;SDS011;29213;50.770;7.298;2023-08-01T02:45:13;0.38;;;0.30;;
43620;SDS011;29213;50.770;7.298;2023-08-01T02:47:38;0.55;;;0.35;;
43620;SDS011;29213;50.770;7.298;2023-08-01T02:50:04;1.00;;;0.40;;
43620;SDS011;29213;50.770;7.298;2023-08-01T02:52:30;0.63;;;0.30;;
43620;SDS011;29213;50.770;7.298;2023-08-01T02:54:56;0.90;;;0.40;;
43620;SDS011;29213;50.770;7.298;2023-08-01T02:57:21;0.88;;;0.35;;
43620;SDS011;29213;50.770;7.298;2023-08-01T02:59:46;1.35;;;0.40;;
43620;SDS011;29213;50.770;7.298;2023-08-01T03:02:12;0.30;;;0.30;;
43620;SDS011;29213;50.770;7.298;2023-08-01T03:04:37;0.75;;;0.30;;
43620;SDS011;29213;50.770;7.298;2023-08-01T03:07:03;0.93;;;0.40;;
43620;SDS011;29213;50.770;7.298;2023-08-01T03:09:28;0.85;;;0.43;;
43620;SDS011;29213;50.770;7.298;2023-08-01T03:11:54;0.57;;;0.43;;
43620;SDS011;29213;50.770;7.298;2023-08-01T03:14:19;1.05;;;0.60;;
43620;SDS011;29213;50.770;7.298;2023-08-01T03:16:45;2.22;;;0.50;;
43620;SDS011;29213;50.770;7.298;2023-08-01T03:19:10;1.90;;;0.65;;
43620;SDS011;29213;50.770;7.298;2023-08-01T03:21:35;1.60;;;0.50;;
43620;SDS011;29213;50.770;7.298;2023-08-01T03:24:02;0.98;;;0.57;;
43620;SDS011;29213;50.770;7.298;2023-08-01T03:26:28;1.52;;;0.70;;
43620;SDS011;29213;50.770;7.298;2023-08-01T03:28:54;2.20;;;0.60;;
43620;SDS011;29213;50.770;7.298;2023-08-01T03:31:21;0.85;;;0.50;;
43620;SDS011;29213;50.770;7.298;2023-08-01T03:33:47;2.30;;;0.60;;
43620;SDS011;29213;50.770;7.298;2023-08-01T03:36:13;2.03;;;0.80;;
43620;SDS011;29213;50.770;7.298;2023-08-01T03:38:38;1.88;;;0.63;;
43620;SDS011;29213;50.770;7.298;2023-08-01T03:41:04;1.08;;;0.60;;
43620;SDS011;29213;50.770;7.298;2023-08-01T03:43:29;1.50;;;0.80;;
43620;SDS011;29213;50.770;7.298;2023-08-01T03:45:55;0.88;;;0.60;;
43620;SDS011;29213;50.770;7.298;2023-08-01T03:48:20;2.97;;;1.00;;
43620;SDS011;29213;50.770;7.298;2023-08-01T03:50:45;1.63;;;0.82;;
43620;SDS011;29213;50.770;7.298;2023-08-01T03:53:11;2.47;;;0.80;;
43620;SDS011;29213;50.770;7.298;2023-08-01T03:55:36;1.60;;;0.80;;
43620;SDS011;29213;50.770;7.298;2023-08-01T03:58:02;3.50;;;1.10;;
43620;SDS011;29213;50.770;7.298;2023-08-01T04:00:27;2.15;;;0.90;;
43620;SDS011;29213;50.770;7.298;2023-08-01T04:02:57;2.90;;;1.00;;
43620;SDS011;29213;50.770;7.298;2023-08-01T04:05:26;2.72;;;1.13;;
43620;SDS011;29213;50.770;7.298;2023-08-01T04:07:54;2.78;;;1.10;;
43620;SDS011;29213;50.770;7.298;2023-08-01T04:10:20;2.50;;;0.90;;
43620;SDS011;29213;50.770;7.298;2023-08-01T04:12:46;3.05;;;1.27;;
43620;SDS011;29213;50.770;7.298;2023-08-01T04:15:12;2.22;;;1.10;;
43620;SDS011;29213;50.770;7.298;2023-08-01T04:17:37;3.78;;;1.17;;
43620;SDS011;29213;50.770;7.298;2023-08-01T04:20:03;3.05;;;1.30;;
43620;SDS011;29213;50.770;7.298;2023-08-01T04:22:28;3.05;;;1.20;;
43620;SDS011;29213;50.770;7.298;2023-08-01T04:24:54;2.40;;;1.10;;
43620;SDS011;29213;50.770;7.298;2023-08-01T04:27:19;2.65;;;1.00;;
43620;SDS011;29213;50.770;7.298;2023-08-01T04:29:45;3.00;;;1.60;;
43620;SDS011;29213;50.770;7.298;2023-08-01T04:32:10;2.70;;;1.33;;
43620;SDS011;29213;50.770;7.298;2023-08-01T04:34:38;2.47;;;1.27;;
43620;SDS011;29213;50.770;7.298;2023-08-01T04:37:04;3.30;;;1.50;;
43620;SDS011;29213;50.770;7.298;2023-08-01T04:39:29;3.08;;;1.33;;
43620;SDS011;29213;50.770;7.298;2023-08-01T04:41:55;2.70;;;1.27;;
43620;SDS011;29213;50.770;7.298;2023-08-01T04:44:20;3.83;;;1.42;;
43620;SDS011;29213;50.770;7.298;2023-08-01T04:46:47;2.88;;;1.40;;
43620;SDS011;29213;50.770;7.298;2023-08-01T04:49:13;2.65;;;1.30;;
43620;SDS011;29213;50.770;7.298;2023-08-01T04:51:38;3.20;;;1.70;;
43620;SDS011;29213;50.770;7.298;2023-08-01T04:54:04;2.67;;;1.40;;
43620;SDS011;29213;50.770;7.298;2023-08-01T04:56:29;2.90;;;1.42;;
43620;SDS011;29213;50.770;7.298;2023-08-01T04:58:54;3.95;;;1.70;;
43620;SDS011;29213;50.770;7.298;2023-08-01T05:01:20;4.38;;;2.28;;
43620;SDS011;29213;50.770;7.298;2023-08-01T05:03:45;3.35;;;1.83;;
43620;SDS011;29213;50.770;7.298;2023-08-01T05:06:11;4.28;;;1.65;;
43620;SDS011;29213;50.770;7.298;2023-08-01T05:08:36;3.67;;;1.90;;
43620;SDS011;29213;50.770;7.298;2023-08-01T05:11:02;4.75;;;1.90;;
43620;SDS011;29213;50.770;7.298;2023-08-01T05:13:27;3.45;;;1.80;;
43620;SDS011;29213;50.770;7.298;2023-08-01T05:15:53;4.30;;;2.00;;
43620;SDS011;29213;50.770;7.298;2023-08-01T05:18:18;4.63;;;2.00;;
43620;SDS011;29213;50.770;7.298;2023-08-01T05:20:44;3.25;;;1.60;;
43620;SDS011;29213;50.770;7.298;2023-08-01T05:23:09;3.05;;;1.73;;
43620;SDS011;29213;50.770;7.298;2023-08-01T05:25:35;5.05;;;2.30;;
43620;SDS011;29213;50.770;7.298;2023-08-01T05:28:00;5.25;;;2.30;;
43620;SDS011;29213;50.770;7.298;2023-08-01T05:30:26;3.75;;;2.30;;
43620;SDS011;29213;50.770;7.298;2023-08-01T05:32:51;5.65;;;2.28;;
43620;SDS011;29213;50.770;7.298;2023-08-01T05:35:17;4.90;;;2.40;;
43620;SDS011;29213;50.770;7.298;2023-08-01T05:37:42;4.40;;;2.30;;
43620;SDS011;29213;50.770;7.298;2023-08-01T05:40:08;5.45;;;2.45;;
43620;SDS011;29213;50.770;7.298;2023-08-01T05:42:34;5.25;;;2.40;;
43620;SDS011;29213;50.770;7.298;2023-08-01T05:44:59;4.68;;;2.30;;
43620;SDS011;29213;50.770;7.298;2023-08-01T05:47:25;4.47;;;2.30;;
43620;SDS011;29213;50.770;7.298;2023-08-01T05:49:50;5.53;;;2.40;;
43620;SDS011;29213;50.770;7.298;2023-08-01T05:52:16;4.80;;;2.40;;
43620;SDS011;29213;50.770;7.298;2023-08-01T05:54:41;5.38;;;2.60;;
43620;SDS011;29213;50.770;7.298;2023-08-01T05:57:07;4.78;;;2.20;;
43620;SDS011;29213;50.770;7.298;2023-08-01T05:59:32;4.43;;;2.28;;
43620;SDS011;29213;50.770;7.298;2023-08-01T06:01:58;5.15;;;2.58;;
43620;SDS011;29213;50.770;7.298;2023-08-01T06:04:23;5.35;;;2.00;;
43620;SDS011;29213;50.770;7.298;2023-08-01T06:06:49;4.28;;;2.20;;
43620;SDS011;29213;50.770;7.298;2023-08-01T06:09:14;4.72;;;2.20;;
43620;SDS011;29213;50.770;7.298;2023-08-01T06:11:40;5.20;;;2.88;;
43620;SDS011;29213;50.770;7.298;2023-08-01T06:14:06;5.22;;;2.38;;
43620;SDS011;29213;50.770;7.298;2023-08-01T06:16:31;4.85;;;2.47;;
43620;SDS011;29213;50.770;7.298;2023-08-01T06:18:57;6.65;;;2.60;;
43620;SDS011;29213;50.770;7.298;2023-08-01T06:21:23;4.40;;;2.42;;
43620;SDS011;29213;50.770;7.298;2023-08-01T06:23:48;6.18;;;2.60;;
43620;SDS011;29213;50.770;7.298;2023-08-01T06:26:14;4.95;;;2.53;;
43620;SDS011;29213;50.770;7.298;2023-08-01T06:28:40;5.30;;;2.65;;
43620;SDS011;29213;50.770;7.298;2023-08-01T06:31:06;4.43;;;2.10;;
43620;SDS011;29213;50.770;7.298;2023-08-01T06:33:32;5.38;;;2.75;;
43620;SDS011;29213;50.770;7.298;2023-08-01T06:35:57;4.95;;;2.40;;
43620;SDS011;29213;50.770;7.298;2023-08-01T06:38:23;5.13;;;2.25;;
43620;SDS011;29213;50.770;7.298;2023-08-01T06:40:48;5.50;;;2.65;;
43620;SDS011;29213;50.770;7.298;2023-08-01T06:43:13;3.80;;;2.25;;
43620;SDS011;29213;50.770;7.298;2023-08-01T06:45:39;5.45;;;2.67;;
43620;SDS011;29213;50.770;7.298;2023-08-01T06:48:04;5.05;;;2.60;;
43620;SDS011;29213;50.770;7.298;2023-08-01T06:50:30;4.35;;;2.40;;
43620;SDS011;29213;50.770;7.298;2023-08-01T06:52:55;4.90;;;2.58;;
43620;SDS011;29213;50.770;7.298;2023-08-01T06:55:21;5.13;;;2.30;;
43620;SDS011;29213;50.770;7.298;2023-08-01T06:57:46;4.85;;;2.38;;
43620;SDS011;29213;50.770;7.298;2023-08-01T07:00:12;3.80;;;2.10;;
43620;SDS011;29213;50.770;7.298;2023-08-01T07:02:37;5.10;;;2.67;;
43620;SDS011;29213;50.770;7.298;2023-08-01T07:05:03;4.85;;;2.30;;
43620;SDS011;29213;50.770;7.298;2023-08-01T07:07:30;5.25;;;2.65;;
43620;SDS011;29213;50.770;7.298;2023-08-01T07:09:56;4.65;;;2.50;;
43620;SDS011;29213;50.770;7.298;2023-08-01T07:12:21;4.78;;;2.15;;
43620;SDS011;29213;50.770;7.298;2023-08-01T07:14:47;8.32;;;2.90;;
43620;SDS011;29213;50.770;7.298;2023-08-01T07:17:12;4.50;;;2.45;;
43620;SDS011;29213;50.770;7.298;2023-08-01T07:19:37;5.65;;;2.80;;
43620;SDS011;29213;50.770;7.298;2023-08-01T07:22:03;5.38;;;2.78;;
43620;SDS011;29213;50.770;7.298;2023-08-01T07:24:28;5.65;;;2.67;;
43620;SDS011;29213;50.770;7.298;2023-08-01T07:26:54;4.40;;;2.42;;
43620;SDS011;29213;50.770;7.298;2023-08-01T07:29:19;5.97;;;2.72;;
43620;SDS011;29213;50.770;7.298;2023-08-01T07:31:44;5.57;;;2.70;;
43620;SDS011;29213;50.770;7.298;2023-08-01T07:34:11;5.68;;;2.90;;
43620;SDS011;29213;50.770;7.298;2023-08-01T07:36:36;5.32;;;2.83;;
43620;SDS011;29213;50.770;7.298;2023-08-01T07:39:02;6.00;;;3.08;;
43620;SDS011;29213;50.770;7.298;2023-08-01T07:41:28;4.70;;;2.70;;
43620;SDS011;29213;50.770;7.298;2023-08-01T07:43:53;5.97;;;2.58;;
43620;SDS011;29213;50.770;7.298;2023-08-01T07:46:19;4.40;;;2.22;;
43620;SDS011;29213;50.770;7.298;2023-08-01T07:48:44;4.93;;;2.25;;
43620;SDS011;29213;50.770;7.298;2023-08-01T07:51:10;6.07;;;2.40;;
43620;SDS011;29213;50.770;7.298;2023-08-01T07:53:37;6.38;;;2.78;;
43620;SDS011;29213;50.770;7.298;2023-08-01T07:56:02;6.55;;;3.00;;
43620;SDS011;29213;50.770;7.298;2023-08-01T07:58:28;5.28;;;2.90;;
43620;SDS011;29213;50.770;7.298;2023-08-01T08:00:54;5.65;;;2.78;;
43620;SDS011;29213;50.770;7.298;2023-08-01T08:03:20;5.45;;;2.92;;
43620;SDS011;29213;50.770;7.298;2023-08-01T08:05:48;5.38;;;3.10;;
43620;SDS011;29213;50.770;7.298;2023-08-01T08:08:14;5.70;;;3.00;;
43620;SDS011;29213;50.770;7.298;2023-08-01T08:10:39;4.45;;;2.85;;
43620;SDS011;29213;50.770;7.298;2023-08-01T08:13:05;6.65;;;3.78;;
43620;SDS011;29213;50.770;7.298;2023-08-01T08:15:30;7.72;;;3.60;;
43620;SDS011;29213;50.770;7.298;2023-08-01T08:17:59;5.18;;;2.95;;
43620;SDS011;29213;50.770;7.298;2023-08-01T08:20:26;7.35;;;3.95;;
43620;SDS011;29213;50.770;7.298;2023-08-01T08:22:51;5.63;;;3.08;;
43620;SDS011;29213;50.770;7.298;2023-08-01T08:25:17;5.93;;;3.30;;
43620;SDS011;29213;50.770;7.298;2023-08-01T08:27:42;5.85;;;3.10;;
43620;SDS011;29213;50.770;7.298;2023-08-01T08:30:08;5.22;;;2.97;;
43620;SDS011;29213;50.770;7.298;2023-08-01T08:32:34;6.97;;;3.45;;
43620;SDS011;29213;50.770;7.298;2023-08-01T08:35:00;5.20;;;3.15;;
43620;SDS011;29213;50.770;7.298;2023-08-01T08:37:26;4.53;;;3.10;;
43620;SDS011;29213;50.770;7.298;2023-08-01T08:39:51;6.13;;;3.58;;
43620;SDS011;29213;50.770;7.298;2023-08-01T08:42:17;4.85;;;3.20;;
43620;SDS011;29213;50.770;7.298;2023-08-01T08:44:44;4.40;;;2.90;;
43620;SDS011;29213;50.770;7.298;2023-08-01T08:47:15;6.05;;;3.25;;
43620;SDS011;29213;50.770;7.298;2023-08-01T08:49:42;7.03;;;3.38;;
43620;SDS011;29213;50.770;7.298;2023-08-01T08:52:09;5.85;;;3.00;;
43620;SDS011;29213;50.770;7.298;2023-08-01T08:54:35;6.93;;;3.33;;
43620;SDS011;29213;50.770;7.298;2023-08-01T08:57:01;5.03;;;3.33;;
43620;SDS011;29213;50.770;7.298;2023-08-01T08:59:32;9.27;;;3.50;;
43620;SDS011;29213;50.770;7.298;2023-08-01T09:01:58;6.57;;;3.55;;
43620;SDS011;29213;50.770;7.298;2023-08-01T09:04:26;5.85;;;3.05;;
43620;SDS011;29213;50.770;7.298;2023-08-01T09:06:53;6.18;;;3.20;;
43620;SDS011;29213;50.770;7.298;2023-08-01T09:09:23;6.05;;;3.20;;
43620;SDS011;29213;50.770;7.298;2023-08-01T09:11:51;6.68;;;3.38;;
43620;SDS011;29213;50.770;7.298;2023-08-01T09:14:18;5.93;;;3.50;;
43620;SDS011;29213;50.770;7.298;2023-08-01T09:16:44;6.80;;;3.25;;
43620;SDS011;29213;50.770;7.298;2023-08-01T09:19:16;5.68;;;2.90;;
43620;SDS011;29213;50.770;7.298;2023-08-01T09:21:42;6.93;;;3.35;;
43620;SDS011;29213;50.770;7.298;2023-08-01T09:24:11;6.65;;;2.95;;
43620;SDS011;29213;50.770;7.298;2023-08-01T09:26:46;5.30;;;2.80;;
43620;SDS011;29213;50.770;7.298;2023-08-01T09:29:13;6.00;;;2.78;;
43620;SDS011;29213;50.770;7.298;2023-08-01T09:31:41;6.25;;;2.70;;
43620;SDS011;29213;50.770;7.298;2023-08-01T09:34:20;4.25;;;2.22;;
43620;SDS011;29213;50.770;7.298;2023-08-01T09:36:47;5.45;;;2.60;;
43620;SDS011;29213;50.770;7.298;2023-08-01T09:39:16;5.32;;;2.67;;
43620;SDS011;29213;50.770;7.298;2023-08-01T09:41:43;6.05;;;2.70;;
43620;SDS011;29213;50.770;7.298;2023-08-01T09:44:14;6.43;;;2.53;;
43620;SDS011;29213;50.770;7.298;2023-08-01T09:46:40;5.45;;;2.65;;
43620;SDS011;29213;50.770;7.298;2023-08-01T09:49:07;5.85;;;2.75;;
43620;SDS011;29213;50.770;7.298;2023-08-01T09:51:34;6.75;;;2.80;;
43620;SDS011;29213;50.770;7.298;2023-08-01T09:54:10;5.15;;;2.47;;
43620;SDS011;29213;50.770;7.298;2023-08-01T09:56:36;4.93;;;2.20;;
43620;SDS011;29213;50.770;7.298;2023-08-01T09:59:02;5.53;;;2.17;;
43620;SDS011;29213;50.770;7.298;2023-08-01T10:01:29;4.97;;;2.30;;
43620;SDS011;29213;50.770;7.298;2023-08-01T10:03:57;6.63;;;2.90;;
43620;SDS011;29213;50.770;7.298;2023-08-01T10:06:24;6.25;;;2.30;;
43620;SDS011;29213;50.770;7.298;2023-08-01T10:08:54;4.85;;;2.30;;
43620;SDS011;29213;50.770;7.298;2023-08-01T10:11:20;4.53;;;2.10;;
43620;SDS011;29213;50.770;7.298;2023-08-01T10:13:47;4.90;;;2.10;;
43620;SDS011;29213;50.770;7.298;2023-08-01T10:16:13;4.72;;;2.15;;
43620;SDS011;29213;50.770;7.298;2023-08-01T10:18:40;4.28;;;1.80;;
43620;SDS011;29213;50.770;7.298;2023-08-01T10:21:06;6.35;;;2.60;;
43620;SDS011;29213;50.770;7.298;2023-08-01T10:23:33;7.60;;;3.60;;
43620;SDS011;29213;50.770;7.298;2023-08-01T10:26:00;8.65;;;5.05;;
43620;SDS011;29213;50.770;7.298;2023-08-01T10:28:35;5.53;;;2.75;;
43620;SDS011;29213;50.770;7.298;2023-08-01T10:31:11;5.05;;;2.63;;
43620;SDS011;29213;50.770;7.298;2023-08-01T10:33:39;5.22;;;2.22;;
43620;SDS011;29213;50.770;7.298;2023-08-01T10:36:19;5.32;;;2.40;;
43620;SDS011;29213;50.770;7.298;2023-08-01T10:38:46;4.85;;;2.00;;
43620;SDS011;29213;50.770;7.298;2023-08-01T10:41:28;5.82;;;2.20;;
43620;SDS011;29213;50.770;7.298;2023-08-01T10:44:31;4.15;;;2.13;;
43620;SDS011;29213;50.770;7.298;2023-08-01T10:46:50;4.18;;;1.70;;
43620;SDS011;29213;50.770;7.298;2023-08-01T10:49:19;4.47;;;1.90;;
43620;SDS011;29213;50.770;7.298;2023-08-01T10:51:49;5.90;;;2.22;;
43620;SDS011;29213;50.770;7.298;2023-08-01T10:54:21;4.78;;;2.03;;
43620;SDS011;29213;50.770;7.298;2023-08-01T10:56:48;3.90;;;2.00;;
43620;SDS011;29213;50.770;7.298;2023-08-01T10:59:15;3.92;;;2.00;;
43620;SDS011;29213;50.770;7.298;2023-08-01T11:01:45;4.80;;;2.25;;
43620;SDS011;29213;50.770;7.298;2023-08-01T11:04:13;7.65;;;2.60;;
43620;SDS011;29213;50.770;7.298;2023-08-01T11:06:46;7.20;;;2.35;;
43620;SDS011;29213;50.770;7.298;2023-08-01T11:09:20;6.25;;;2.30;;
43620;SDS011;29213;50.770;7.298;2023-08-01T11:11:50;4.18;;;1.85;;
43620;SDS011;29213;50.770;7.298;2023-08-01T11:14:21;3.72;;;1.80;;
43620;SDS011;29213;50.770;7.298;2023-08-01T11:16:49;4.45;;;1.90;;
43620;SDS011;29213;50.770;7.298;2023-08-01T11:19:25;4.20;;;2.00;;
43620;SDS011;29213;50.770;7.298;2023-08-01T11:21:52;4.55;;;1.90;;
43620;SDS011;29213;50.770;7.298;2023-08-01T11:24:20;3.72;;;1.70;;
43620;SDS011;29213;50.770;7.298;2023-08-01T11:26:46;4.50;;;2.00;;
43620;SDS011;29213;50.770;7.298;2023-08-01T11:29:13;4.55;;;2.10;;
43620;SDS011;29213;50.770;7.298;2023-08-01T11:31:40;4.45;;;1.85;;
43620;SDS011;29213;50.770;7.298;2023-08-01T11:34:06;5.82;;;1.70;;
43620;SDS011;29213;50.770;7.298;2023-08-01T11:36:34;3.70;;;2.00;;
43620;SDS011;29213;50.770;7.298;2023-08-01T11:39:00;5.13;;;1.95;;
43620;SDS011;29213;50.770;7.298;2023-08-01T11:41:26;4.32;;;1.88;;
43620;SDS011;29213;50.770;7.298;2023-08-01T11:43:52;4.20;;;2.00;;
43620;SDS011;29213;50.770;7.298;2023-08-01T11:46:20;4.25;;;2.00;;
43620;SDS011;29213;50.770;7.298;2023-08-01T11:48:46;3.65;;;1.65;;
43620;SDS011;29213;50.770;7.298;2023-08-01T11:51:17;4.00;;;2.15;;
43620;SDS011;29213;50.770;7.298;2023-08-01T11:53:43;4.22;;;1.80;;
43620;SDS011;29213;50.770;7.298;2023-08-01T11:56:08;4.13;;;1.85;;
43620;SDS011;29213;50.770;7.298;2023-08-01T11:58:44;3.90;;;1.75;;
43620;SDS011;29213;50.770;7.298;2023-08-01T12:01:10;4.00;;;1.70;;
43620;SDS011;29213;50.770;7.298;2023-08-01T12:03:50;3.80;;;1.55;;
43620;SDS011;29213;50.770;7.298;2023-08-01T12:06:18;3.25;;;1.65;;
43620;SDS011;29213;50.770;7.298;2023-08-01T12:08:47;3.38;;;1.60;;
43620;SDS011;29213;50.770;7.298;2023-08-01T12:11:17;4.22;;;1.63;;
43620;SDS011;29213;50.770;7.298;2023-08-01T12:13:44;4.97;;;2.00;;
43620;SDS011;29213;50.770;7.298;2023-08-01T12:16:10;4.05;;;2.08;;
43620;SDS011;29213;50.770;7.298;2023-08-01T12:18:35;4.30;;;2.00;;
43620;SDS011;29213;50.770;7.298;2023-08-01T12:21:02;4.10;;;1.70;;
43620;SDS011;29213;50.770;7.298;2023-08-01T12:23:30;3.42;;;1.60;;
43620;SDS011;29213;50.770;7.298;2023-08-01T12:25:56;3.85;;;1.90;;
43620;SDS011;29213;50.770;7.298;2023-08-01T12:28:21;3.13;;;1.40;;
43620;SDS011;29213;50.770;7.298;2023-08-01T12:30:46;4.30;;;1.73;;
43620;SDS011;29213;50.770;7.298;2023-08-01T12:33:13;3.72;;;1.67;;
43620;SDS011;29213;50.770;7.298;2023-08-01T12:35:39;3.22;;;1.60;;
43620;SDS011;29213;50.770;7.298;2023-08-01T12:38:06;4.35;;;1.90;;
43620;SDS011;29213;50.770;7.298;2023-08-01T12:40:32;3.80;;;1.45;;
43620;SDS011;29213;50.770;7.298;2023-08-01T12:42:57;3.83;;;1.48;;
43620;SDS011;29213;50.770;7.298;2023-08-01T12:45:23;4.47;;;1.58;;
43620;SDS011;29213;50.770;7.298;2023-08-01T12:47:48;3.47;;;1.60;;
43620;SDS011;29213;50.770;7.298;2023-08-01T12:50:14;5.53;;;1.80;;
43620;SDS011;29213;50.770;7.298;2023-08-01T12:52:40;3.65;;;1.60;;
43620;SDS011;29213;50.770;7.298;2023-08-01T12:55:05;4.75;;;1.80;;
43620;SDS011;29213;50.770;7.298;2023-08-01T12:57:31;4.40;;;1.65;;
43620;SDS011;29213;50.770;7.298;2023-08-01T12:59:57;3.28;;;1.65;;
43620;SDS011;29213;50.770;7.298;2023-08-01T13:02:22;3.20;;;1.48;;
43620;SDS011;29213;50.770;7.298;2023-08-01T13:04:47;5.38;;;1.60;;
43620;SDS011;29213;50.770;7.298;2023-08-01T13:07:13;3.30;;;1.40;;
43620;SDS011;29213;50.770;7.298;2023-08-01T13:09:39;3.22;;;1.60;;
43620;SDS011;29213;50.770;7.298;2023-08-01T13:12:04;3.60;;;1.30;;
43620;SDS011;29213;50.770;7.298;2023-08-01T13:14:31;3.80;;;1.60;;
43620;SDS011;29213;50.770;7.298;2023-08-01T13:16:57;3.50;;;1.60;;
43620;SDS011;29213;50.770;7.298;2023-08-01T13:19:24;3.72;;;1.30;;
43620;SDS011;29213;50.770;7.298;2023-08-01T13:21:50;3.28;;;1.17;;
43620;SDS011;29213;50.770;7.298;2023-08-01T13:24:15;3.60;;;1.33;;
43620;SDS011;29213;50.770;7.298;2023-08-01T13:26:41;3.20;;;1.08;;
43620;SDS011;29213;50.770;7.298;2023-08-01T13:29:06;2.42;;;0.98;;
43620;SDS011;29213;50.770;7.298;2023-08-01T13:31:32;2.40;;;1.00;;
43620;SDS011;29213;50.770;7.298;2023-08-01T13:33:57;2.53;;;1.00;;
43620;SDS011;29213;50.770;7.298;2023-08-01T13:36:23;3.42;;;1.05;;
43620;SDS011;29213;50.770;7.298;2023-08-01T13:38:49;3.70;;;1.30;;
43620;SDS011;29213;50.770;7.298;2023-08-01T13:41:14;3.55;;;1.30;;
43620;SDS011;29213;50.770;7.298;2023-08-01T13:43:40;2.53;;;1.00;;
43620;SDS011;29213;50.770;7.298;2023-08-01T13:46:11;2.67;;;1.05;;
43620;SDS011;29213;50.770;7.298;2023-08-01T13:48:39;3.42;;;1.20;;
43620;SDS011;29213;50.770;7.298;2023-08-01T13:51:05;3.28;;;1.27;;
43620;SDS011;29213;50.770;7.298;2023-08-01T13:53:31;2.22;;;1.10;;
43620;SDS011;29213;50.770;7.298;2023-08-01T13:55:56;3.33;;;1.15;;
43620;SDS011;29213;50.770;7.298;2023-08-01T13:58:21;3.45;;;1.10;;
43620;SDS011;29213;50.770;7.298;2023-08-01T14:00:47;3.17;;;1.33;;
43620;SDS011;29213;50.770;7.298;2023-08-01T14:03:12;3.08;;;1.15;;
43620;SDS011;29213;50.770;7.298;2023-08-01T14:05:38;2.33;;;1.00;;
43620;SDS011;29213;50.770;7.298;2023-08-01T14:08:03;2.95;;;1.10;;
43620;SDS011;29213;50.770;7.298;2023-08-01T14:10:29;3.78;;;1.10;;
43620;SDS011;29213;50.770;7.298;2023-08-01T14:12:54;3.13;;;1.15;;
43620;SDS011;29213;50.770;7.298;2023-08-01T14:15:20;3.05;;;1.20;;
43620;SDS011;29213;50.770;7.298;2023-08-01T14:17:46;2.97;;;1.38;;
43620;SDS011;29213;50.770;7.298;2023-08-01T14:20:11;3.53;;;1.35;;
43620;SDS011;29213;50.770;7.298;2023-08-01T14:22:37;3.03;;;1.10;;
43620;SDS011;29213;50.770;7.298;2023-08-01T14:25:03;3.60;;;1.10;;
43620;SDS011;29213;50.770;7.298;2023-08-01T14:27:29;3.05;;;1.20;;
43620;SDS011;29213;50.770;7.298;2023-08-01T14:29:55;2.65;;;1.10;;
43620;SDS011;29213;50.770;7.298;2023-08-01T14:32:20;3.38;;;1.10;;
43620;SDS011;29213;50.770;7.298;2023-08-01T14:34:45;3.42;;;1.25;;
43620;SDS011;29213;50.770;7.298;2023-08-01T14:37:11;5.57;;;1.50;;
43620;SDS011;29213;50.770;7.298;2023-08-01T14:39:36;3.47;;;1.52;;
43620;SDS011;29213;50.770;7.298;2023-08-01T14:42:01;4.47;;;1.60;;